sensor_id;sensor_type;location;lat;lon;timestamp;pressure;altitude;pressure_sealevel;temperature;humidity
48244;BME280;34053;51.088;6.572;2023-07-22T00:02:27;100871.16;;;17.29;51.03
48244;BME280;34053;51.088;6.572;2023-07-22T00:05:18;100866.00;;;17.26;51.18
48244;BME280;34053;51.088;6.572;2023-07-22T00:08:14;100868.97;;;17.20;51.81
48244;BME280;34053;51.088;6.572;2023-07-22T00:11:05;100872.41;;;17.22;51.47
48244;BME280;34053;51.088;6.572;2023-07-22T00:13:56;100874.28;;;17.20;51.53
48244;BME280;34053;51.088;6.572;2023-07-22T00:16:47;100873.75;;;17.13;52.01
48244;BME280;34053;51.088;6.572;2023-07-22T00:19:38;100869.22;;;17.15;51.38
48244;BME280;34053;51.088;6.572;2023-07-22T00:22:29;100870.25;;;17.13;51.58
48244;BME280;34053;51.088;6.572;2023-07-22T00:25:20;100867.66;;;17.11;51.93
48244;BME280;34053;51.088;6.572;2023-07-22T00:28:13;100861.75;;;17.06;51.96
48244;BME280;34053;51.088;6.572;2023-07-22T00:31:04;100861.97;;;17.02;51.92
48244;BME280;34053;51.088;6.572;2023-07-22T00:33:54;100866.34;;;17.03;52.23
48244;BME280;34053;51.088;6.572;2023-07-22T00:36:45;100867.44;;;16.98;52.15
48244;BME280;34053;51.088;6.572;2023-07-22T00:39:37;100861.13;;;17.01;52.33
48244;BME280;34053;51.088;6.572;2023-07-22T00:42:28;100864.50;;;17.05;51.76
48244;BME280;34053;51.088;6.572;2023-07-22T00:45:19;100859.25;;;17.03;51.57
48244;BME280;34053;51.088;6.572;2023-07-22T00:48:10;100864.16;;;17.11;51.88
48244;BME280;34053;51.088;6.572;2023-07-22T00:51:02;100857.47;;;17.04;51.51
48244;BME280;34053;51.088;6.572;2023-07-22T00:53:53;100856.06;;;16.96;51.83
48244;BME280;34053;51.088;6.572;2023-07-22T00:56:45;100854.97;;;17.01;51.78
48244;BME280;34053;51.088;6.572;2023-07-22T00:59:39;100855.84;;;17.01;51.74
48244;BME280;34053;51.088;6.572;2023-07-22T01:02:30;100848.97;;;16.97;51.74
48244;BME280;34053;51.088;6.572;2023-07-22T01:05:21;100853.25;;;16.99;52.12
48244;BME280;34053;51.088;6.572;2023-07-22T01:08:12;100858.03;;;16.93;52.55
48244;BME280;34053;51.088;6.572;2023-07-22T01:11:03;100854.72;;;16.88;52.91
48244;BME280;34053;51.088;6.572;2023-07-22T01:13:54;100849.19;;;16.75;53.68
48244;BME280;34053;51.088;6.572;2023-07-22T01:16:48;100844.81;;;16.74;53.26
48244;BME280;34053;51.088;6.572;2023-07-22T01:19:40;100843.66;;;16.79;53.08
48244;BME280;34053;51.088;6.572;2023-07-22T01:22:32;100844.19;;;16.68;52.99
48244;BME280;34053;51.088;6.572;2023-07-22T01:25:23;100840.72;;;16.68;53.37
48244;BME280;34053;51.088;6.572;2023-07-22T01:28:14;100835.19;;;16.73;52.55
48244;BME280;34053;51.088;6.572;2023-07-22T01:31:05;100841.47;;;16.70;53.22
48244;BME280;34053;51.088;6.572;2023-07-22T01:33:56;100837.34;;;16.64;53.46
48244;BME280;34053;51.088;6.572;2023-07-22T01:36:49;100840.84;;;16.65;52.89
48244;BME280;34053;51.088;6.572;2023-07-22T01:39:40;100842.44;;;16.69;52.92
48244;BME280;34053;51.088;6.572;2023-07-22T01:42:32;100829.09;;;16.53;53.53
48244;BME280;34053;51.088;6.572;2023-07-22T01:45:23;100831.09;;;16.65;52.99
48244;BME280;34053;51.088;6.572;2023-07-22T01:48:14;100833.91;;;16.62;52.12
48244;BME280;34053;51.088;6.572;2023-07-22T01:51:05;100831.66;;;16.55;52.99
48244;BME280;34053;51.088;6.572;2023-07-22T01:53:56;100829.69;;;16.58;52.97
48244;BME280;34053;51.088;6.572;2023-07-22T01:56:47;100829.53;;;16.44;53.36
48244;BME280;34053;51.088;6.572;2023-07-22T01:59:38;100837.00;;;16.35;54.20
48244;BME280;34053;51.088;6.572;2023-07-22T02:02:28;100825.88;;;16.46;53.59
48244;BME280;34053;51.088;6.572;2023-07-22T02:05:19;100824.56;;;16.38;53.02
48244;BME280;34053;51.088;6.572;2023-07-22T02:08:11;100833.28;;;16.40;53.75
48244;BME280;34053;51.088;6.572;2023-07-22T02:11:03;100836.88;;;16.39;53.40
48244;BME280;34053;51.088;6.572;2023-07-22T02:13:54;100834.44;;;16.34;54.09
48244;BME280;34053;51.088;6.572;2023-07-22T02:16:45;100831.00;;;16.32;53.94
48244;BME280;34053;51.088;6.572;2023-07-22T02:19:36;100831.13;;;16.48;53.31
48244;BME280;34053;51.088;6.572;2023-07-22T02:22:27;100819.50;;;16.33;53.44
48244;BME280;34053;51.088;6.572;2023-07-22T02:25:18;100816.84;;;16.33;53.71
48244;BME280;34053;51.088;6.572;2023-07-22T02:28:09;100815.28;;;16.29;52.98
48244;BME280;34053;51.088;6.572;2023-07-22T02:31:02;100817.91;;;16.29;53.37
48244;BME280;34053;51.088;6.572;2023-07-22T02:33:56;100816.28;;;16.26;53.29
48244;BME280;34053;51.088;6.572;2023-07-22T02:36:47;100815.88;;;16.16;53.95
48244;BME280;34053;51.088;6.572;2023-07-22T02:39:38;100825.47;;;16.19;54.04
48244;BME280;34053;51.088;6.572;2023-07-22T02:42:28;100818.84;;;16.10;54.55
48244;BME280;34053;51.088;6.572;2023-07-22T02:45:19;100823.22;;;15.92;55.18
48244;BME280;34053;51.088;6.572;2023-07-22T02:48:10;100834.50;;;16.15;54.54
48244;BME280;34053;51.088;6.572;2023-07-22T02:51:04;100830.97;;;16.14;54.14
48244;BME280;34053;51.088;6.572;2023-07-22T02:53:55;100827.53;;;16.12;53.90
48244;BME280;34053;51.088;6.572;2023-07-22T02:56:46;100828.06;;;16.01;54.32
48244;BME280;34053;51.088;6.572;2023-07-22T02:59:37;100826.34;;;16.00;53.67
48244;BME280;34053;51.088;6.572;2023-07-22T03:02:28;100827.44;;;15.96;54.39
48244;BME280;34053;51.088;6.572;2023-07-22T03:05:19;100829.09;;;15.99;54.30
48244;BME280;34053;51.088;6.572;2023-07-22T03:08:11;100825.22;;;15.87;54.32
48244;BME280;34053;51.088;6.572;2023-07-22T03:11:02;100827.88;;;15.87;54.60
48244;BME280;34053;51.088;6.572;2023-07-22T03:13:54;100832.97;;;15.92;54.36
48244;BME280;34053;51.088;6.572;2023-07-22T03:16:45;100830.94;;;15.78;54.61
48244;BME280;34053;51.088;6.572;2023-07-22T03:19:35;100829.00;;;15.81;54.18
48244;BME280;34053;51.088;6.572;2023-07-22T03:22:26;100831.31;;;15.89;54.38
48244;BME280;34053;51.088;6.572;2023-07-22T03:25:19;100832.09;;;15.91;54.41
48244;BME280;34053;51.088;6.572;2023-07-22T03:28:10;100840.41;;;15.83;54.95
48244;BME280;34053;51.088;6.572;2023-07-22T03:31:00;100835.38;;;15.77;55.36
48244;BME280;34053;51.088;6.572;2023-07-22T03:33:51;100842.38;;;15.78;54.44
48244;BME280;34053;51.088;6.572;2023-07-22T03:36:43;100846.13;;;15.34;56.74
48244;BME280;34053;51.088;6.572;2023-07-22T03:39:33;100836.06;;;15.42;56.23
48244;BME280;34053;51.088;6.572;2023-07-22T03:42:24;100845.22;;;15.54;55.84
48244;BME280;34053;51.088;6.572;2023-07-22T03:45:19;100842.31;;;15.61;55.37
48244;BME280;34053;51.088;6.572;2023-07-22T03:48:10;100839.22;;;15.51;55.55
48244;BME280;34053;51.088;6.572;2023-07-22T03:51:00;100838.94;;;15.57;56.26
48244;BME280;34053;51.088;6.572;2023-07-22T03:53:51;100844.28;;;15.36;57.17
48244;BME280;34053;51.088;6.572;2023-07-22T03:56:42;100839.66;;;15.61;55.63
48244;BME280;34053;51.088;6.572;2023-07-22T03:59:33;100842.22;;;15.62;55.35
48244;BME280;34053;51.088;6.572;2023-07-22T04:02:24;100839.28;;;15.49;56.10
48244;BME280;34053;51.088;6.572;2023-07-22T04:05:15;100847.81;;;15.56;56.24
48244;BME280;34053;51.088;6.572;2023-07-22T04:08:06;100836.34;;;15.36;57.06
48244;BME280;34053;51.088;6.572;2023-07-22T04:10:57;100842.56;;;15.35;56.77
48244;BME280;34053;51.088;6.572;2023-07-22T04:13:48;100846.38;;;15.49;55.87
48244;BME280;34053;51.088;6.572;2023-07-22T04:16:39;100849.06;;;15.47;55.87
48244;BME280;34053;51.088;6.572;2023-07-22T04:19:30;100843.44;;;15.36;56.62
48244;BME280;34053;51.088;6.572;2023-07-22T04:22:21;100842.84;;;15.48;56.07
48244;BME280;34053;51.088;6.572;2023-07-22T04:25:12;100837.34;;;15.53;55.92
48244;BME280;34053;51.088;6.572;2023-07-22T04:28:03;100843.22;;;15.40;56.55
48244;BME280;34053;51.088;6.572;2023-07-22T04:30:55;100851.06;;;15.42;56.12
48244;BME280;34053;51.088;6.572;2023-07-22T04:33:47;100855.22;;;15.48;56.70
48244;BME280;34053;51.088;6.572;2023-07-22T04:36:38;100856.25;;;15.45;56.86
48244;BME280;34053;51.088;6.572;2023-07-22T04:39:29;100853.22;;;15.53;56.47
48244;BME280;34053;51.088;6.572;2023-07-22T04:42:20;100848.81;;;15.53;55.92
48244;BME280;34053;51.088;6.572;2023-07-22T04:45:11;100851.59;;;15.50;56.38
48244;BME280;34053;51.088;6.572;2023-07-22T04:48:02;100847.09;;;15.52;56.20
48244;BME280;34053;51.088;6.572;2023-07-22T04:50:53;100840.94;;;15.52;56.08
48244;BME280;34053;51.088;6.572;2023-07-22T04:53:44;100849.53;;;15.57;56.10
48244;BME280;34053;51.088;6.572;2023-07-22T04:56:34;100848.53;;;15.60;55.99
48244;BME280;34053;51.088;6.572;2023-07-22T04:59:25;100840.63;;;15.58;55.79
48244;BME280;34053;51.088;6.572;2023-07-22T05:02:16;100836.94;;;15.62;55.60
48244;BME280;34053;51.088;6.572;2023-07-22T05:05:07;100838.78;;;15.60;55.80
48244;BME280;34053;51.088;6.572;2023-07-22T05:07:58;100847.53;;;15.62;56.03
48244;BME280;34053;51.088;6.572;2023-07-22T05:10:49;100842.22;;;15.62;55.57
48244;BME280;34053;51.088;6.572;2023-07-22T05:13:39;100840.44;;;15.63;56.26
48244;BME280;34053;51.088;6.572;2023-07-22T05:16:30;100837.94;;;15.60;56.85
48244;BME280;34053;51.088;6.572;2023-07-22T05:19:21;100846.81;;;15.78;55.86
48244;BME280;34053;51.088;6.572;2023-07-22T05:22:12;100852.00;;;15.60;56.95
48244;BME280;34053;51.088;6.572;2023-07-22T05:25:04;100845.25;;;15.73;56.09
48244;BME280;34053;51.088;6.572;2023-07-22T05:27:55;100848.66;;;15.76;55.57
48244;BME280;34053;51.088;6.572;2023-07-22T05:30:46;100855.97;;;15.70;56.27
48244;BME280;34053;51.088;6.572;2023-07-22T05:33:37;100852.38;;;15.71;56.44
48244;BME280;34053;51.088;6.572;2023-07-22T05:36:28;100850.66;;;15.70;56.31
48244;BME280;34053;51.088;6.572;2023-07-22T05:39:18;100854.09;;;15.72;57.13
48244;BME280;34053;51.088;6.572;2023-07-22T05:42:09;100863.53;;;15.78;56.34
48244;BME280;34053;51.088;6.572;2023-07-22T05:45:02;100862.97;;;15.71;56.84
48244;BME280;34053;51.088;6.572;2023-07-22T05:47:53;100863.75;;;15.73;56.82
48244;BME280;34053;51.088;6.572;2023-07-22T05:50:44;100857.25;;;15.81;56.64
48244;BME280;34053;51.088;6.572;2023-07-22T05:53:35;100857.91;;;15.86;56.68
48244;BME280;34053;51.088;6.572;2023-07-22T05:56:25;100859.09;;;15.79;56.60
48244;BME280;34053;51.088;6.572;2023-07-22T05:59:16;100853.69;;;15.82;56.78
48244;BME280;34053;51.088;6.572;2023-07-22T06:02:08;100846.72;;;15.79;56.48
48244;BME280;34053;51.088;6.572;2023-07-22T06:04:59;100842.97;;;15.85;56.59
48244;BME280;34053;51.088;6.572;2023-07-22T06:07:50;100845.25;;;15.93;56.99
48244;BME280;34053;51.088;6.572;2023-07-22T06:10:41;100843.53;;;15.92;57.62
48244;BME280;34053;51.088;6.572;2023-07-22T06:13:31;100844.25;;;15.95;58.23
48244;BME280;34053;51.088;6.572;2023-07-22T06:16:22;100843.53;;;15.92;59.64
48244;BME280;34053;51.088;6.572;2023-07-22T06:19:13;100847.53;;;16.00;58.84
48244;BME280;34053;51.088;6.572;2023-07-22T06:22:04;100844.44;;;16.10;59.03
48244;BME280;34053;51.088;6.572;2023-07-22T06:24:56;100846.28;;;16.08;59.71
48244;BME280;34053;51.088;6.572;2023-07-22T06:27:47;100847.78;;;16.13;59.23
48244;BME280;34053;51.088;6.572;2023-07-22T06:30:38;100851.84;;;16.20;59.07
48244;BME280;34053;51.088;6.572;2023-07-22T06:33:28;100844.13;;;16.16;60.02
48244;BME280;34053;51.088;6.572;2023-07-22T06:36:19;100848.00;;;16.09;60.94
48244;BME280;34053;51.088;6.572;2023-07-22T06:39:10;100854.22;;;16.08;60.14
48244;BME280;34053;51.088;6.572;2023-07-22T06:42:01;100864.06;;;16.05;60.36
48244;BME280;34053;51.088;6.572;2023-07-22T06:44:52;100860.81;;;15.80;60.53
48244;BME280;34053;51.088;6.572;2023-07-22T06:47:43;100861.06;;;15.94;60.56
48244;BME280;34053;51.088;6.572;2023-07-22T06:50:34;100863.41;;;16.00;60.51
48244;BME280;34053;51.088;6.572;2023-07-22T06:53:25;100851.88;;;16.01;60.79
48244;BME280;34053;51.088;6.572;2023-07-22T06:56:16;100857.25;;;16.00;60.60
48244;BME280;34053;51.088;6.572;2023-07-22T06:59:06;100857.97;;;16.03;60.89
48244;BME280;34053;51.088;6.572;2023-07-22T07:01:57;100852.25;;;16.13;60.84
48244;BME280;34053;51.088;6.572;2023-07-22T07:04:49;100853.03;;;16.15;60.61
48244;BME280;34053;51.088;6.572;2023-07-22T07:07:40;100858.38;;;16.13;61.23
48244;BME280;34053;51.088;6.572;2023-07-22T07:10:36;100853.78;;;16.17;60.41
48244;BME280;34053;51.088;6.572;2023-07-22T07:13:27;100852.72;;;16.21;60.37
48244;BME280;34053;51.088;6.572;2023-07-22T07:16:26;100851.22;;;16.15;60.63
48244;BME280;34053;51.088;6.572;2023-07-22T07:19:17;100857.16;;;16.20;60.83
48244;BME280;34053;51.088;6.572;2023-07-22T07:22:08;100862.53;;;16.19;60.91
48244;BME280;34053;51.088;6.572;2023-07-22T07:24:59;100859.16;;;16.15;61.33
48244;BME280;34053;51.088;6.572;2023-07-22T07:27:50;100854.34;;;16.24;60.73
48244;BME280;34053;51.088;6.572;2023-07-22T07:30:40;100854.94;;;16.30;61.20
48244;BME280;34053;51.088;6.572;2023-07-22T07:33:32;100856.16;;;16.41;60.56
48244;BME280;34053;51.088;6.572;2023-07-22T07:36:23;100860.94;;;16.34;60.41
48244;BME280;34053;51.088;6.572;2023-07-22T07:39:14;100866.00;;;16.39;60.62
48244;BME280;34053;51.088;6.572;2023-07-22T07:42:05;100867.72;;;16.40;60.69
48244;BME280;34053;51.088;6.572;2023-07-22T07:44:56;100864.75;;;16.46;60.78
48244;BME280;34053;51.088;6.572;2023-07-22T07:47:46;100854.97;;;16.48;61.15
48244;BME280;34053;51.088;6.572;2023-07-22T07:50:37;100859.84;;;16.56;60.25
48244;BME280;34053;51.088;6.572;2023-07-22T07:53:28;100862.28;;;16.60;60.00
48244;BME280;34053;51.088;6.572;2023-07-22T07:56:19;100856.38;;;16.73;59.47
48244;BME280;34053;51.088;6.572;2023-07-22T07:59:10;100860.41;;;16.80;59.53
48244;BME280;34053;51.088;6.572;2023-07-22T08:02:01;100853.22;;;16.82;59.38
48244;BME280;34053;51.088;6.572;2023-07-22T08:04:53;100852.84;;;16.90;59.63
48244;BME280;34053;51.088;6.572;2023-07-22T08:07:44;100855.28;;;16.94;59.26
48244;BME280;34053;51.088;6.572;2023-07-22T08:10:35;100863.69;;;17.03;58.72
48244;BME280;34053;51.088;6.572;2023-07-22T08:13:26;100854.50;;;17.10;59.08
48244;BME280;34053;51.088;6.572;2023-07-22T08:16:17;100863.81;;;17.17;58.84
48244;BME280;34053;51.088;6.572;2023-07-22T08:19:08;100869.38;;;17.12;58.53
48244;BME280;34053;51.088;6.572;2023-07-22T08:21:59;100863.59;;;17.22;58.38
48244;BME280;34053;51.088;6.572;2023-07-22T08:24:49;100860.53;;;17.29;57.82
48244;BME280;34053;51.088;6.572;2023-07-22T08:27:40;100864.81;;;17.32;57.77
48244;BME280;34053;51.088;6.572;2023-07-22T08:30:31;100863.47;;;17.41;57.60
48244;BME280;34053;51.088;6.572;2023-07-22T08:33:23;100856.28;;;17.43;55.97
48244;BME280;34053;51.088;6.572;2023-07-22T08:36:14;100856.56;;;17.54;55.11
48244;BME280;34053;51.088;6.572;2023-07-22T08:39:06;100846.56;;;17.59;55.16
48244;BME280;34053;51.088;6.572;2023-07-22T08:41:59;100851.97;;;17.58;54.37
48244;BME280;34053;51.088;6.572;2023-07-22T08:44:56;100849.91;;;17.63;54.19
48244;BME280;34053;51.088;6.572;2023-07-22T08:47:47;100849.50;;;17.71;53.99
48244;BME280;34053;51.088;6.572;2023-07-22T08:50:44;100852.22;;;17.85;53.99
48244;BME280;34053;51.088;6.572;2023-07-22T08:53:36;100848.63;;;17.86;53.48
48244;BME280;34053;51.088;6.572;2023-07-22T08:56:28;100846.25;;;17.98;53.22
48244;BME280;34053;51.088;6.572;2023-07-22T08:59:19;100848.75;;;18.01;52.51
48244;BME280;34053;51.088;6.572;2023-07-22T09:02:12;100848.31;;;18.08;52.93
48244;BME280;34053;51.088;6.572;2023-07-22T09:05:03;100850.97;;;18.08;52.07
48244;BME280;34053;51.088;6.572;2023-07-22T09:07:56;100851.97;;;18.22;52.20
48244;BME280;34053;51.088;6.572;2023-07-22T09:10:48;100850.16;;;18.22;51.06
48244;BME280;34053;51.088;6.572;2023-07-22T09:13:39;100848.13;;;18.12;51.08
48244;BME280;34053;51.088;6.572;2023-07-22T09:16:32;100851.03;;;18.07;50.52
48244;BME280;34053;51.088;6.572;2023-07-22T09:19:23;100850.53;;;18.16;51.24
48244;BME280;34053;51.088;6.572;2023-07-22T09:22:13;100850.16;;;18.22;50.93
48244;BME280;34053;51.088;6.572;2023-07-22T09:28:05;100855.63;;;18.35;51.01
48244;BME280;34053;51.088;6.572;2023-07-22T09:31:01;100854.44;;;18.41;51.24
48244;BME280;34053;51.088;6.572;2023-07-22T09:33:53;100854.78;;;18.51;50.92
48244;BME280;34053;51.088;6.572;2023-07-22T09:36:51;100848.22;;;18.56;50.81
48244;BME280;34053;51.088;6.572;2023-07-22T09:39:46;100846.63;;;18.68;51.31
48244;BME280;34053;51.088;6.572;2023-07-22T09:42:37;100842.69;;;18.76;50.83
48244;BME280;34053;51.088;6.572;2023-07-22T09:45:30;100844.69;;;18.86;51.15
48244;BME280;34053;51.088;6.572;2023-07-22T09:48:22;100848.09;;;18.88;51.32
48244;BME280;34053;51.088;6.572;2023-07-22T09:51:15;100846.41;;;18.87;51.45
48244;BME280;34053;51.088;6.572;2023-07-22T09:54:07;100850.59;;;18.92;50.71
48244;BME280;34053;51.088;6.572;2023-07-22T09:56:58;100846.63;;;18.99;51.46
48244;BME280;34053;51.088;6.572;2023-07-22T09:59:49;100845.13;;;19.09;50.28
48244;BME280;34053;51.088;6.572;2023-07-22T10:02:43;100847.03;;;19.07;50.17
48244;BME280;34053;51.088;6.572;2023-07-22T10:05:35;100850.44;;;19.09;50.00
48244;BME280;34053;51.088;6.572;2023-07-22T10:08:29;100851.00;;;19.00;49.53
48244;BME280;34053;51.088;6.572;2023-07-22T10:11:22;100851.69;;;19.03;49.88
48244;BME280;34053;51.088;6.572;2023-07-22T10:14:13;100849.22;;;19.00;49.64
48244;BME280;34053;51.088;6.572;2023-07-22T10:17:05;100842.38;;;19.11;49.33
48244;BME280;34053;51.088;6.572;2023-07-22T10:19:57;100841.25;;;19.15;48.29
48244;BME280;34053;51.088;6.572;2023-07-22T10:22:48;100840.47;;;19.27;48.97
48244;BME280;34053;51.088;6.572;2023-07-22T10:25:40;100840.50;;;19.42;48.58
48244;BME280;34053;51.088;6.572;2023-07-22T10:28:32;100837.72;;;19.43;47.26
48244;BME280;34053;51.088;6.572;2023-07-22T10:31:23;100833.66;;;19.38;46.31
48244;BME280;34053;51.088;6.572;2023-07-22T10:34:14;100830.50;;;19.45;47.58
48244;BME280;34053;51.088;6.572;2023-07-22T10:37:04;100829.25;;;19.51;47.42
48244;BME280;34053;51.088;6.572;2023-07-22T10:39:59;100835.72;;;19.61;47.27
48244;BME280;34053;51.088;6.572;2023-07-22T10:42:57;100820.50;;;19.63;46.54
48244;BME280;34053;51.088;6.572;2023-07-22T10:45:51;100815.44;;;19.73;46.14
48244;BME280;34053;51.088;6.572;2023-07-22T10:48:42;100810.44;;;19.96;46.53
48244;BME280;34053;51.088;6.572;2023-07-22T10:51:36;100810.63;;;20.07;45.95
48244;BME280;34053;51.088;6.572;2023-07-22T10:54:33;100805.19;;;20.09;46.46
48244;BME280;34053;51.088;6.572;2023-07-22T10:57:27;100802.50;;;20.09;45.01
48244;BME280;34053;51.088;6.572;2023-07-22T11:00:19;100794.72;;;20.33;45.38
48244;BME280;34053;51.088;6.572;2023-07-22T11:03:14;100788.78;;;20.55;45.02
48244;BME280;34053;51.088;6.572;2023-07-22T11:06:07;100784.22;;;20.57;45.20
48244;BME280;34053;51.088;6.572;2023-07-22T11:08:58;100783.97;;;20.60;44.87
48244;BME280;34053;51.088;6.572;2023-07-22T11:11:49;100777.19;;;20.69;44.34
48244;BME280;34053;51.088;6.572;2023-07-22T11:17:41;100769.53;;;20.78;43.23
48244;BME280;34053;51.088;6.572;2023-07-22T11:20:32;100766.22;;;20.87;43.78
48244;BME280;34053;51.088;6.572;2023-07-22T11:23:23;100776.53;;;21.04;43.34
48244;BME280;34053;51.088;6.572;2023-07-22T11:26:15;100771.53;;;21.13;42.90
48244;BME280;34053;51.088;6.572;2023-07-22T11:29:07;100764.47;;;21.12;42.46
48244;BME280;34053;51.088;6.572;2023-07-22T11:31:58;100768.28;;;21.33;42.72
48244;BME280;34053;51.088;6.572;2023-07-22T11:34:51;100767.84;;;21.39;42.64
48244;BME280;34053;51.088;6.572;2023-07-22T11:37:43;100766.00;;;21.03;42.63
48244;BME280;34053;51.088;6.572;2023-07-22T11:40:34;100766.72;;;21.18;42.99
48244;BME280;34053;51.088;6.572;2023-07-22T11:43:25;100772.06;;;21.18;41.42
48244;BME280;34053;51.088;6.572;2023-07-22T11:46:16;100769.03;;;21.35;41.58
48244;BME280;34053;51.088;6.572;2023-07-22T11:49:07;100761.09;;;21.47;41.44
48244;BME280;34053;51.088;6.572;2023-07-22T11:52:06;100767.59;;;21.68;41.70
48244;BME280;34053;51.088;6.572;2023-07-22T11:55:01;100758.31;;;21.61;41.01
48244;BME280;34053;51.088;6.572;2023-07-22T11:57:54;100752.28;;;21.70;41.94
48244;BME280;34053;51.088;6.572;2023-07-22T12:00:45;100749.19;;;21.77;42.37
48244;BME280;34053;51.088;6.572;2023-07-22T12:03:35;100751.31;;;21.72;42.35
48244;BME280;34053;51.088;6.572;2023-07-22T12:06:27;100752.00;;;21.62;42.52
48244;BME280;34053;51.088;6.572;2023-07-22T12:09:18;100740.66;;;21.72;41.49
48244;BME280;34053;51.088;6.572;2023-07-22T12:12:09;100741.22;;;21.88;40.50
48244;BME280;34053;51.088;6.572;2023-07-22T12:18:03;100739.56;;;21.74;39.89
48244;BME280;34053;51.088;6.572;2023-07-22T12:20:57;100723.25;;;21.90;39.84
48244;BME280;34053;51.088;6.572;2023-07-22T12:23:47;100711.53;;;22.04;40.85
48244;BME280;34053;51.088;6.572;2023-07-22T12:26:38;100716.06;;;22.15;37.32
48244;BME280;34053;51.088;6.572;2023-07-22T12:29:29;100718.03;;;22.36;36.80
48244;BME280;34053;51.088;6.572;2023-07-22T12:32:20;100713.78;;;22.33;36.80
48244;BME280;34053;51.088;6.572;2023-07-22T12:35:10;100722.63;;;22.46;36.84
48244;BME280;34053;51.088;6.572;2023-07-22T12:38:04;100712.53;;;22.73;35.07
48244;BME280;34053;51.088;6.572;2023-07-22T12:40:54;100703.31;;;22.66;35.67
48244;BME280;34053;51.088;6.572;2023-07-22T12:43:45;100712.31;;;22.99;33.94
48244;BME280;34053;51.088;6.572;2023-07-22T12:46:36;100716.69;;;23.00;33.36
48244;BME280;34053;51.088;6.572;2023-07-22T12:49:27;100707.56;;;23.02;34.06
48244;BME280;34053;51.088;6.572;2023-07-22T12:52:18;100711.66;;;23.06;32.81
48244;BME280;34053;51.088;6.572;2023-07-22T12:55:08;100708.41;;;23.14;32.99
48244;BME280;34053;51.088;6.572;2023-07-22T12:57:59;100703.78;;;23.27;33.24
48244;BME280;34053;51.088;6.572;2023-07-22T13:00:50;100694.00;;;23.38;33.45
48244;BME280;34053;51.088;6.572;2023-07-22T13:03:41;100701.75;;;23.52;33.40
48244;BME280;34053;51.088;6.572;2023-07-22T13:06:31;100699.81;;;23.54;33.22
48244;BME280;34053;51.088;6.572;2023-07-22T13:09:22;100701.88;;;23.62;33.10
48244;BME280;34053;51.088;6.572;2023-07-22T13:12:13;100691.81;;;23.76;33.36
48244;BME280;34053;51.088;6.572;2023-07-22T13:15:04;100689.94;;;23.87;33.28
48244;BME280;34053;51.088;6.572;2023-07-22T13:17:55;100692.25;;;23.92;33.08
48244;BME280;34053;51.088;6.572;2023-07-22T13:20:46;100689.78;;;24.00;33.06
48244;BME280;34053;51.088;6.572;2023-07-22T13:23:37;100682.56;;;23.80;33.62
48244;BME280;34053;51.088;6.572;2023-07-22T13:26:27;100693.19;;;23.70;33.96
48244;BME280;34053;51.088;6.572;2023-07-22T13:29:18;100675.75;;;24.08;33.52
48244;BME280;34053;51.088;6.572;2023-07-22T13:32:09;100675.47;;;24.11;34.18
48244;BME280;34053;51.088;6.572;2023-07-22T13:35:00;100676.59;;;24.09;33.47
48244;BME280;34053;51.088;6.572;2023-07-22T13:37:50;100666.56;;;23.89;33.72
48244;BME280;34053;51.088;6.572;2023-07-22T13:40:41;100667.03;;;24.16;34.08
48244;BME280;34053;51.088;6.572;2023-07-22T13:43:32;100668.41;;;24.10;33.13
48244;BME280;34053;51.088;6.572;2023-07-22T13:46:23;100656.84;;;24.31;34.47
48244;BME280;34053;51.088;6.572;2023-07-22T13:49:14;100654.50;;;24.16;33.46
48244;BME280;34053;51.088;6.572;2023-07-22T13:52:06;100649.25;;;23.94;33.20
48244;BME280;34053;51.088;6.572;2023-07-22T13:54:56;100659.72;;;24.18;33.51
48244;BME280;34053;51.088;6.572;2023-07-22T13:57:47;100635.00;;;24.35;33.15
48244;BME280;34053;51.088;6.572;2023-07-22T14:00:38;100638.97;;;24.41;33.79
48244;BME280;34053;51.088;6.572;2023-07-22T14:03:29;100643.78;;;24.69;32.97
48244;BME280;34053;51.088;6.572;2023-07-22T14:06:20;100636.81;;;24.66;33.27
48244;BME280;34053;51.088;6.572;2023-07-22T14:09:11;100635.63;;;24.59;33.53
48244;BME280;34053;51.088;6.572;2023-07-22T14:12:02;100639.03;;;24.61;32.96
48244;BME280;34053;51.088;6.572;2023-07-22T14:14:53;100636.66;;;24.58;33.81
48244;BME280;34053;51.088;6.572;2023-07-22T14:17:44;100627.41;;;24.50;33.05
48244;BME280;34053;51.088;6.572;2023-07-22T14:20:35;100643.97;;;24.56;32.48
48244;BME280;34053;51.088;6.572;2023-07-22T14:23:26;100626.94;;;24.35;32.98
48244;BME280;34053;51.088;6.572;2023-07-22T14:26:17;100619.84;;;24.56;33.09
48244;BME280;34053;51.088;6.572;2023-07-22T14:29:07;100623.53;;;24.64;32.98
48244;BME280;34053;51.088;6.572;2023-07-22T14:31:58;100625.97;;;24.67;32.85
48244;BME280;34053;51.088;6.572;2023-07-22T14:34:49;100612.25;;;25.11;31.86
48244;BME280;34053;51.088;6.572;2023-07-22T14:37:41;100614.38;;;25.37;31.07
48244;BME280;34053;51.088;6.572;2023-07-22T14:40:31;100623.69;;;25.33;32.06
48244;BME280;34053;51.088;6.572;2023-07-22T14:43:22;100615.25;;;25.57;31.41
48244;BME280;34053;51.088;6.572;2023-07-22T14:46:13;100623.19;;;25.69;31.57
48244;BME280;34053;51.088;6.572;2023-07-22T14:49:04;100614.28;;;25.49;32.13
48244;BME280;34053;51.088;6.572;2023-07-22T14:51:55;100605.06;;;25.71;32.16
48244;BME280;34053;51.088;6.572;2023-07-22T14:54:47;100612.13;;;25.91;32.88
48244;BME280;34053;51.088;6.572;2023-07-22T14:57:38;100611.41;;;26.09;32.16
48244;BME280;34053;51.088;6.572;2023-07-22T15:00:29;100596.66;;;26.23;32.32
48244;BME280;34053;51.088;6.572;2023-07-22T15:03:20;100606.38;;;26.24;30.15
48244;BME280;34053;51.088;6.572;2023-07-22T15:06:10;100615.97;;;26.36;29.90